Time;durP1;ratioP1;P1;durP2;ratioP2;P2;SDS_P1;SDS_P2;PMS_P1;PMS_P2;Temp;Humidity;BMP_temperature;BMP_pressure;BME280_temperature;BME280_humidity;BME280_pressure;Samples;Min_cycle;Max_cycle;Signal;HPM_P1;HPM_P2
2022/05/09 00:00:38;;;;;;;8.77;2.40;;;5.10;99.90;;;;;;5073530;28;20108;-73
2022/05/09 00:03:04;;;;;;;7.95;2.05;;;5.10;99.90;;;;;;5091605;28;20445;-73
2022/05/09 00:05:29;;;;;;;3.08;1.40;;;5.10;99.90;;;;;;5090822;28;20048;-73
2022/05/09 00:07:56;;;;;;;5.57;1.85;;;5.10;99.90;;;;;;5072108;28;20082;-73
2022/05/09 00:10:24;;;;;;;6.00;1.70;;;5.10;99.90;;;;;;5056371;28;20048;-73
2022/05/09 00:12:50;;;;;;;6.18;1.90;;;5.00;99.90;;;;;;5072343;28;20048;-72
2022/05/09 00:15:17;;;;;;;5.85;1.85;;;5.20;99.90;;;;;;5091141;28;20059;-72
2022/05/09 00:17:45;;;;;;;10.35;2.60;;;4.90;99.90;;;;;;5091088;28;20047;-72
2022/05/09 00:20:12;;;;;;;10.40;2.30;;;4.90;99.90;;;;;;5091331;28;20028;-73
2022/05/09 00:22:47;;;;;;;9.55;2.55;;;4.90;99.90;;;;;;5072527;28;20106;-72
2022/05/09 00:25:12;;;;;;;;;;;4.80;99.90;;;;;;5091757;28;20086;-73
2022/05/09 00:27:38;;;;;;;9.20;2.78;;;4.80;99.90;;;;;;5090502;28;19928;-73
2022/05/09 00:30:04;;;;;;;8.60;2.92;;;4.70;99.90;;;;;;5073200;28;20441;-72
2022/05/09 00:32:30;;;;;;;9.98;3.20;;;4.70;99.90;;;;;;5072354;28;20073;-73
2022/05/09 00:34:56;;;;;;;8.93;3.22;;;4.60;99.90;;;;;;5090982;28;20039;-72
2022/05/09 00:37:21;;;;;;;11.90;3.13;;;4.50;99.90;;;;;;5072528;28;20343;-72
2022/05/09 00:39:47;;;;;;;11.30;3.20;;;4.40;99.90;;;;;;5072406;28;20119;-73
2022/05/09 00:42:13;;;;;;;16.65;3.53;;;4.50;99.90;;;;;;5090531;28;20497;-74
2022/05/09 00:44:40;;;;;;;11.05;3.20;;;4.50;99.90;;;;;;5090659;28;20055;-72
2022/05/09 00:47:06;;;;;;;11.15;3.38;;;4.40;99.90;;;;;;5072372;28;20391;-73
2022/05/09 00:49:45;;;;;;;12.38;3.03;;;4.40;99.90;;;;;;5090379;28;20048;-74
2022/05/09 00:52:31;;;;;;;9.05;2.88;;;4.40;99.90;;;;;;5090600;28;20078;-73
2022/05/09 00:55:02;;;;;;;10.85;3.65;;;4.40;99.90;;;;;;5083431;28;20044;-73
2022/05/09 00:57:40;;;;;;;8.38;3.17;;;4.60;99.90;;;;;;5071699;28;20047;-73
2022/05/09 01:00:13;;;;;;;9.73;3.20;;;4.40;99.90;;;;;;5072227;28;20048;-72
2022/05/09 01:02:43;;;;;;;11.23;3.63;;;4.70;99.90;;;;;;5071559;28;20051;-73
2022/05/09 01:05:09;;;;;;;11.25;3.10;;;4.30;99.90;;;;;;5089929;28;20040;-72
2022/05/09 01:07:35;;;;;;;7.05;2.65;;;4.20;99.90;;;;;;5090297;28;20145;-73
2022/05/09 01:10:00;;;;;;;12.55;3.00;;;4.30;99.90;;;;;;5090673;28;20491;-73
2022/05/09 01:12:35;;;;;;;7.85;2.85;;;4.30;99.90;;;;;;5090192;28;20122;-73
2022/05/09 01:15:05;;;;;;;8.25;3.00;;;4.20;99.90;;;;;;5089723;28;20063;-72
2022/05/09 01:17:31;;;;;;;8.95;3.58;;;4.30;99.90;;;;;;5071909;28;20038;-72
2022/05/09 01:20:00;;;;;;;10.23;3.88;;;4.10;99.90;;;;;;5071743;28;20063;-73
2022/05/09 01:22:31;;;;;;;10.38;2.90;;;4.10;99.90;;;;;;5090491;28;20897;-72
2022/05/09 01:25:03;;;;;;;8.50;2.70;;;4.00;99.90;;;;;;5090124;28;20062;-73
2022/05/09 01:27:34;;;;;;;10.00;3.05;;;4.00;99.90;;;;;;5071833;28;20044;-74
2022/05/09 01:30:21;;;;;;;7.15;2.60;;;4.00;99.90;;;;;;5071996;28;20052;-74
2022/05/09 01:32:53;;;;;;;8.93;3.20;;;4.00;99.90;;;;;;5089852;28;20044;-73
2022/05/09 01:35:21;;;;;;;7.80;2.70;;;3.90;99.90;;;;;;5071506;28;20050;-73
2022/05/09 01:37:54;;;;;;;7.43;2.50;;;3.90;99.90;;;;;;5089534;28;20043;-72
2022/05/09 01:40:20;;;;;;;9.30;2.28;;;3.90;99.90;;;;;;5090206;28;20072;-73
2022/05/09 01:42:46;;;;;;;6.47;2.47;;;3.90;99.90;;;;;;5070755;28;20091;-73
2022/05/09 01:45:13;;;;;;;6.80;3.17;;;3.90;99.90;;;;;;5089841;28;20048;-73
2022/05/09 01:50:23;;;;;;;12.88;3.42;;;3.80;99.90;;;;;;5084092;28;20323;-73
2022/05/09 01:52:49;;;;;;;10.95;2.95;;;3.80;99.90;;;;;;5068830;28;20127;-73
2022/05/09 01:55:15;;;;;;;8.48;2.92;;;3.80;99.90;;;;;;5088944;28;20059;-73
2022/05/09 01:57:41;;;;;;;13.38;3.35;;;3.80;99.90;;;;;;5071873;28;20139;-73
2022/05/09 02:00:09;;;;;;;8.18;2.67;;;3.80;99.90;;;;;;5088587;28;20071;-73
2022/05/09 02:02:35;;;;;;;8.95;2.95;;;3.80;99.90;;;;;;5070510;28;20036;-73
2022/05/09 02:05:02;;;;;;;7.55;3.10;;;3.70;99.90;;;;;;5087346;28;20046;-73
2022/05/09 02:07:28;;;;;;;10.10;3.33;;;3.70;99.90;;;;;;5086818;28;20040;-73
2022/05/09 02:09:54;;;;;;;7.15;2.78;;;3.70;99.90;;;;;;5067971;28;20040;-70
2022/05/09 02:12:21;;;;;;;5.43;2.53;;;3.70;99.90;;;;;;5087350;28;20079;-73
2022/05/09 02:14:48;;;;;;;8.98;3.53;;;3.80;99.90;;;;;;5088385;28;20036;-73
2022/05/09 02:17:14;;;;;;;10.75;3.28;;;3.80;99.90;;;;;;5088274;28;20134;-72
2022/05/09 02:19:42;;;;;;;11.02;3.75;;;3.80;99.90;;;;;;5071584;28;20171;-73
2022/05/09 02:22:11;;;;;;;10.80;2.90;;;3.80;99.90;;;;;;5066309;28;20143;-73
2022/05/09 02:24:39;;;;;;;9.02;2.78;;;3.80;99.90;;;;;;5056665;28;20124;-73
2022/05/09 02:27:05;;;;;;;6.80;2.90;;;3.80;99.90;;;;;;5083040;28;20056;-72
2022/05/09 02:29:31;;;;;;;9.93;2.88;;;3.70;99.90;;;;;;5069312;28;20044;-72
2022/05/09 02:31:59;;;;;;;10.68;3.60;;;3.80;99.90;;;;;;5091809;28;20044;-72
2022/05/09 02:34:25;;;;;;;9.25;3.50;;;3.70;99.90;;;;;;5073016;28;20105;-72
2022/05/09 02:36:51;;;;;;;9.18;3.50;;;3.80;99.90;;;;;;5093040;28;20479;-72
2022/05/09 02:39:16;;;;;;;16.05;3.78;;;3.80;99.90;;;;;;5070913;28;20060;-72
2022/05/09 02:41:42;;;;;;;7.72;3.10;;;3.80;99.90;;;;;;5087436;28;20040;-72
2022/05/09 02:44:08;;;;;;;7.90;3.35;;;3.80;99.90;;;;;;5091073;28;20043;-72
2022/05/09 02:46:34;;;;;;;9.20;3.05;;;3.80;99.90;;;;;;5075724;28;20198;-73
2022/05/09 02:49:00;;;;;;;13.00;3.80;;;3.80;99.90;;;;;;5075028;28;20127;-72
2022/05/09 02:51:27;;;;;;;11.93;3.53;;;3.80;99.90;;;;;;5093568;28;20525;-73
2022/05/09 02:53:56;;;;;;;11.57;3.33;;;3.90;99.90;;;;;;5084419;28;20191;-72
2022/05/09 02:56:22;;;;;;;10.70;3.80;;;3.90;99.90;;;;;;5092695;28;20506;-72
2022/05/09 02:58:48;;;;;;;8.40;3.45;;;3.80;99.90;;;;;;5074213;28;20368;-72
2022/05/09 03:01:13;;;;;;;13.43;3.78;;;3.80;99.90;;;;;;5092145;28;20063;-72
2022/05/09 03:06:23;;;;;;;8.98;3.45;;;3.90;99.90;;;;;;5091822;28;20503;-72
2022/05/09 03:08:49;;;;;;;13.75;3.40;;;3.90;99.90;;;;;;5091579;28;20059;-71
2022/05/09 03:11:14;;;;;;;10.98;3.65;;;3.80;99.90;;;;;;5091270;28;20359;-72
2022/05/09 03:13:40;;;;;;;7.60;3.30;;;3.90;99.90;;;;;;5091121;28;20079;-72
2022/05/09 03:16:06;;;;;;;10.75;3.22;;;3.80;99.90;;;;;;5091913;28;20578;-73
2022/05/09 03:18:32;;;;;;;9.27;3.70;;;3.80;99.90;;;;;;5092248;28;20052;-72
2022/05/09 03:20:58;;;;;;;9.48;3.55;;;3.80;99.90;;;;;;5091867;28;20044;-72
2022/05/09 03:23:24;;;;;;;9.85;3.28;;;3.80;99.90;;;;;;5092232;28;20059;-73
2022/05/09 03:25:50;;;;;;;9.45;3.20;;;3.70;99.90;;;;;;5091732;28;20046;-71
2022/05/09 03:28:21;;;;;;;8.82;3.15;;;3.70;99.90;;;;;;5091912;28;20048;-72
2022/05/09 03:30:49;;;;;;;7.20;2.92;;;3.70;99.90;;;;;;5069793;28;20627;-71
2022/05/09 03:33:15;;;;;;;10.60;3.10;;;3.70;99.90;;;;;;5091668;28;20047;-72
2022/05/09 03:35:43;;;;;;;6.63;3.00;;;3.70;99.90;;;;;;5091928;28;20487;-72
2022/05/09 03:38:10;;;;;;;5.05;2.78;;;3.60;99.90;;;;;;5072583;28;20067;-71
2022/05/09 03:40:36;;;;;;;7.50;2.47;;;3.60;99.90;;;;;;5091224;28;20096;-71
2022/05/09 03:43:02;;;;;;;8.13;2.70;;;3.60;99.90;;;;;;5091767;28;20054;-73
2022/05/09 03:45:28;;;;;;;6.53;2.88;;;3.60;99.90;;;;;;5091606;28;20058;-72
2022/05/09 03:47:54;;;;;;;5.20;2.65;;;3.50;99.90;;;;;;5091285;28;20085;-73
2022/05/09 03:50:20;;;;;;;8.52;2.92;;;3.50;99.90;;;;;;5070416;28;20490;-73
2022/05/09 03:52:46;;;;;;;7.60;2.88;;;3.50;99.90;;;;;;5072016;28;20083;-73
2022/05/09 03:55:12;;;;;;;9.52;3.10;;;3.40;99.90;;;;;;5071567;28;20048;-72
2022/05/09 03:57:50;;;;;;;8.02;3.40;;;3.40;99.90;;;;;;5091397;28;20043;-73
2022/05/09 04:00:18;;;;;;;7.97;3.05;;;3.40;99.90;;;;;;5090264;28;20101;-73
2022/05/09 04:02:44;;;;;;;6.95;2.95;;;3.40;99.90;;;;;;5072383;28;20052;-72
2022/05/09 04:05:15;;;;;;;7.32;3.03;;;3.40;99.90;;;;;;5072496;28;20039;-72
2022/05/09 04:07:46;;;;;;;3.85;2.50;;;3.40;99.90;;;;;;5073046;28;20091;-73
2022/05/09 04:10:14;;;;;;;8.57;2.92;;;3.40;99.90;;;;;;5072129;28;20052;-72
2022/05/09 04:12:40;;;;;;;10.00;2.92;;;3.30;99.90;;;;;;5090796;28;20081;-72
2022/05/09 04:17:52;;;;;;;8.82;2.88;;;3.30;99.90;;;;;;5090937;28;20043;-73
2022/05/09 04:20:18;;;;;;;13.30;3.03;;;3.20;99.90;;;;;;5069462;28;20048;-73
2022/05/09 04:22:44;;;;;;;7.68;2.92;;;3.20;99.90;;;;;;5071491;28;20044;-72
2022/05/09 04:25:09;;;;;;;9.25;2.80;;;3.20;99.90;;;;;;5089801;28;20433;-72
2022/05/09 04:27:36;;;;;;;10.63;3.28;;;3.20;99.90;;;;;;5090705;28;20043;-73
2022/05/09 04:30:02;;;;;;;5.43;2.65;;;3.30;99.90;;;;;;5069682;28;20376;-73
2022/05/09 04:32:28;;;;;;;12.75;3.20;;;3.30;99.90;;;;;;5087589;28;20059;-71
2022/05/09 04:34:54;;;;;;;5.75;2.45;;;3.30;99.90;;;;;;5090331;28;20048;-72
2022/05/09 04:37:19;;;;;;;5.13;2.75;;;3.40;99.90;;;;;;5091037;28;20068;-73
2022/05/09 04:39:45;;;;;;;10.50;3.17;;;3.40;99.90;;;;;;5090463;28;20059;-73
2022/05/09 04:42:12;;;;;;;5.50;2.70;;;3.40;99.90;;;;;;5072135;28;20044;-73
2022/05/09 04:44:38;;;;;;;11.18;2.85;;;3.50;99.90;;;;;;5072278;28;20083;-72
2022/05/09 04:47:04;;;;;;;7.72;3.40;;;3.50;99.90;;;;;;5090671;28;20067;-72
2022/05/09 04:49:29;;;;;;;13.23;3.58;;;4.00;99.90;;;;;;5068616;28;20048;-72
2022/05/09 04:51:55;;;;;;;9.52;3.67;;;3.70;99.90;;;;;;5087815;28;20423;-71
2022/05/09 04:54:20;;;;;;;14.98;4.57;;;3.80;99.90;;;;;;5071292;28;20058;-72
2022/05/09 04:56:46;;;;;;;15.35;5.22;;;3.90;99.90;;;;;;5090234;28;20052;-73
2022/05/09 04:59:12;;;;;;;14.95;5.40;;;4.60;99.90;;;;;;5090085;28;20118;-73
2022/05/09 05:01:37;;;;;;;21.65;6.22;;;4.10;99.90;;;;;;5071843;28;20536;-73
2022/05/09 05:04:05;;;;;;;23.70;7.35;;;4.30;99.90;;;;;;5068247;28;20044;-72
2022/05/09 05:06:31;;;;;;;25.55;7.20;;;4.40;99.90;;;;;;5054960;28;20476;-72
2022/05/09 05:08:57;;;;;;;21.20;7.25;;;4.60;99.90;;;;;;5089955;28;20089;-72
2022/05/09 05:11:23;;;;;;;26.65;7.85;;;4.70;99.90;;;;;;5089963;28;20044;-71
2022/05/09 05:13:48;;;;;;;26.48;7.07;;;4.90;99.90;;;;;;5067730;28;20119;-71
2022/05/09 05:16:14;;;;;;;19.27;7.53;;;5.30;99.90;;;;;;5086291;28;20056;-73
2022/05/09 05:18:40;;;;;;;24.70;7.82;;;5.20;99.90;;;;;;5089822;28;20040;-73
2022/05/09 05:21:13;;;;;;;23.00;9.38;;;5.40;99.90;;;;;;5071966;28;20040;-73
2022/05/09 05:23:39;;;;;;;34.05;8.80;;;5.60;99.90;;;;;;5071500;28;20130;-73
2022/05/09 05:26:05;;;;;;;30.60;8.88;;;5.70;99.90;;;;;;5068517;28;20089;-73
2022/05/09 05:28:34;;;;;;;27.10;8.27;;;5.90;99.90;;;;;;5068600;28;20079;-74
2022/05/09 05:31:18;;;;;;;33.47;7.57;;;6.00;99.90;;;;;;5071706;28;20100;-74
2022/05/09 05:33:45;;;;;;;27.70;8.27;;;6.20;99.90;;;;;;5089477;28;20403;-72
2022/05/09 05:36:11;;;;;;;26.30;8.45;;;6.40;99.90;;;;;;5071538;28;20047;-73
2022/05/09 05:38:37;;;;;;;23.67;8.32;;;6.50;99.90;;;;;;5067295;28;20044;-73
2022/05/09 05:41:03;;;;;;;23.15;7.55;;;6.60;99.90;;;;;;5071373;28;20040;-79
2022/05/09 05:43:28;;;;;;;27.23;8.75;;;6.80;99.90;;;;;;5089535;28;20505;-74
2022/05/09 05:45:55;;;;;;;22.70;8.00;;;7.00;99.90;;;;;;5088807;28;20065;-73
2022/05/09 05:48:21;;;;;;;21.08;7.30;;;7.10;99.90;;;;;;5089113;28;20055;-73
2022/05/09 05:50:47;;;;;;;23.63;7.53;;;7.20;99.90;;;;;;5068217;28;20182;-73
2022/05/09 05:53:13;;;;;;;18.98;7.28;;;7.40;99.90;;;;;;5070875;28;20681;-72
2022/05/09 05:55:38;;;;;;;22.35;8.13;;;7.50;99.90;;;;;;5089837;28;20052;-74
2022/05/09 05:58:04;;;;;;;24.92;8.10;;;7.60;99.90;;;;;;5089130;28;20040;-72
2022/05/09 06:00:30;;;;;;;23.25;8.60;;;7.70;99.90;;;;;;5088811;28;20043;-73
2022/05/09 06:02:55;;;;;;;23.52;7.97;;;7.90;99.90;;;;;;5068316;28;20391;-74
2022/05/09 06:05:21;;;;;;;21.80;7.45;;;8.00;99.90;;;;;;5089514;28;20048;-74
2022/05/09 06:07:51;;;;;;;23.60;8.15;;;8.10;99.90;;;;;;5093833;28;20059;-74
2022/05/09 06:10:18;;;;;;;23.33;7.15;;;8.30;99.90;;;;;;5074932;28;20058;-74
2022/05/09 06:12:44;;;;;;;18.80;6.43;;;8.40;99.90;;;;;;5092668;28;20051;-74
2022/05/09 06:15:28;;;;;;;22.95;7.25;;;8.60;99.90;;;;;;5092995;28;20047;-75
2022/05/09 06:17:59;;;;;;;21.35;6.75;;;8.60;99.90;;;;;;5093404;28;20051;-73
2022/05/09 06:20:26;;;;;;;29.00;7.25;;;8.70;99.90;;;;;;5092754;28;20047;-74
2022/05/09 06:22:54;;;;;;;22.40;7.32;;;8.80;99.90;;;;;;5093266;28;20048;-73
2022/05/09 06:25:21;;;;;;;21.95;6.82;;;9.00;99.90;;;;;;5072059;28;20049;-74
2022/05/09 06:27:47;;;;;;;23.83;7.00;;;9.10;99.90;;;;;;5092672;28;20048;-74
2022/05/09 06:30:14;;;;;;;23.38;6.93;;;9.20;99.90;;;;;;5074396;28;20067;-73
2022/05/09 06:32:40;;;;;;;22.08;7.25;;;9.50;99.90;;;;;;5092029;28;20048;-71
2022/05/09 06:35:09;;;;;;;20.55;6.97;;;9.50;99.90;;;;;;5071193;28;20059;-73
2022/05/09 06:37:37;;;;;;;20.02;6.57;;;9.60;99.90;;;;;;5089778;28;20060;-74
2022/05/09 06:40:04;;;;;;;20.27;6.30;;;9.70;99.90;;;;;;5093016;28;20040;-74
2022/05/09 06:42:29;;;;;;;23.55;6.60;;;9.80;99.90;;;;;;5092272;28;20097;-74
2022/05/09 06:44:55;;;;;;;25.38;6.80;;;9.90;99.90;;;;;;5070791;28;20056;-74
2022/05/09 06:47:21;;;;;;;16.25;6.45;;;10.00;99.90;;;;;;5072482;28;20106;-74
2022/05/09 06:49:47;;;;;;;19.63;6.63;;;10.30;99.90;;;;;;5073487;28;20119;-74
2022/05/09 06:52:13;;;;;;;20.95;6.65;;;10.30;99.90;;;;;;5072196;28;20037;-75
2022/05/09 06:54:39;;;;;;;25.33;6.35;;;10.60;99.90;;;;;;5074264;28;20056;-74
2022/05/09 06:57:05;;;;;;;25.77;5.80;;;10.60;99.90;;;;;;5074484;28;20036;-74
2022/05/09 06:59:32;;;;;;;25.98;5.90;;;10.90;99.90;;;;;;5073985;28;20459;-73
2022/05/09 07:01:57;;;;;;;22.70;6.20;;;11.00;99.90;;;;;;5093617;28;20127;-74
2022/05/09 07:04:23;;;;;;;18.55;5.78;;;11.20;99.90;;;;;;5093172;28;20725;-74
2022/05/09 07:06:49;;;;;;;19.65;5.93;;;11.40;99.90;;;;;;5092409;28;20044;-74
2022/05/09 07:09:15;;;;;;;23.85;6.57;;;11.60;99.90;;;;;;5092603;28;20083;-74
2022/05/09 07:11:42;;;;;;;20.13;5.50;;;12.00;99.90;;;;;;5092492;28;20083;-75
2022/05/09 07:14:08;;;;;;;19.38;5.43;;;11.90;99.90;;;;;;5074228;28;20047;-75
2022/05/09 07:16:34;;;;;;;21.95;5.45;;;12.00;99.90;;;;;;5073607;28;20051;-74
2022/05/09 07:19:00;;;;;;;17.60;4.95;;;12.30;99.90;;;;;;5092611;28;20036;-75
2022/05/09 07:21:27;;;;;;;20.27;4.60;;;12.30;99.90;;;;;;5092123;28;20550;-75
2022/05/09 07:23:53;;;;;;;16.67;4.13;;;12.50;99.90;;;;;;5092210;28;20039;-74
2022/05/09 07:26:19;;;;;;;12.32;4.55;;;12.50;99.90;;;;;;5092408;28;20096;-74
2022/05/09 07:28:45;;;;;;;18.13;4.22;;;13.00;99.90;;;;;;5091936;28;20403;-74
2022/05/09 07:31:11;;;;;;;9.00;3.45;;;13.00;99.90;;;;;;5092896;28;20537;-72
2022/05/09 07:33:37;;;;;;;15.80;4.07;;;13.10;99.90;;;;;;5088392;28;20382;-74
2022/05/09 07:36:04;;;;;;;10.88;3.45;;;13.30;99.90;;;;;;5093148;28;20051;-74
2022/05/09 07:38:30;;;;;;;16.55;4.00;;;13.50;99.90;;;;;;5093167;28;20079;-75
2022/05/09 07:40:56;;;;;;;11.52;3.58;;;13.70;99.90;;;;;;5091959;28;20052;-74
2022/05/09 07:43:26;;;;;;;13.48;3.97;;;13.80;99.90;;;;;;5073908;28;20048;-75
2022/05/09 07:45:54;;;;;;;16.98;3.90;;;14.10;99.90;;;;;;5092156;28;20040;-75
2022/05/09 07:48:20;;;;;;;14.73;4.18;;;14.30;99.90;;;;;;5091376;28;20471;-75
2022/05/09 07:50:46;;;;;;;15.45;3.90;;;14.60;99.90;;;;;;5092289;28;20111;-75
2022/05/09 07:53:21;;;;;;;17.23;4.40;;;15.10;99.90;;;;;;5090924;28;20059;-75
2022/05/09 07:55:47;;;;;;;14.75;4.60;;;15.10;99.90;;;;;;5090855;28;20459;-75
2022/05/09 07:58:13;;;;;;;10.80;4.10;;;15.50;99.90;;;;;;5091381;28;20047;-75
2022/05/09 08:00:41;;;;;;;12.65;4.00;;;15.80;99.90;;;;;;5073301;28;20040;-75
2022/05/09 08:03:14;;;;;;;11.02;3.28;;;16.00;99.90;;;;;;5082578;28;20072;-72
2022/05/09 08:05:40;;;;;;;23.35;4.57;;;16.40;99.90;;;;;;5068361;28;20119;-73
2022/05/09 08:08:06;;;;;;;15.77;3.00;;;16.60;99.90;;;;;;5090965;28;20051;-73
2022/05/09 08:10:32;;;;;;;11.52;3.15;;;16.70;99.90;;;;;;5071534;28;20048;-72
2022/05/09 08:12:58;;;;;;;19.02;4.20;;;17.10;99.90;;;;;;5070286;28;20052;-72
2022/05/09 08:15:25;;;;;;;16.77;3.67;;;17.20;99.90;;;;;;5070147;28;20048;-73
2022/05/09 08:17:52;;;;;;;10.27;3.10;;;17.50;99.90;;;;;;5090881;28;20043;-74
2022/05/09 08:20:19;;;;;;;14.20;3.72;;;17.70;99.90;;;;;;5090876;28;20048;-74
2022/05/09 08:22:45;;;;;;;13.82;3.53;;;17.90;99.90;;;;;;5091023;28;20087;-75
2022/05/09 08:25:13;;;;;;;10.98;3.42;;;18.20;99.90;;;;;;5091819;28;20090;-76
2022/05/09 08:27:39;;;;;;;12.27;3.47;;;18.50;99.90;;;;;;5072042;28;20048;-76
2022/05/09 08:30:06;;;;;;;12.52;3.13;;;18.80;99.90;;;;;;5090299;28;20036;-77
2022/05/09 08:32:34;;;;;;;12.20;3.22;;;19.20;99.90;;;;;;5063951;28;20430;-77
2022/05/09 08:35:00;;;;;;;13.02;3.47;;;19.40;99.90;;;;;;5082086;28;20042;-77
2022/05/09 08:37:25;;;;;;;15.45;3.50;;;19.50;99.90;;;;;;5076486;28;20037;-75
2022/05/09 08:39:51;;;;;;;9.10;2.47;;;19.50;99.90;;;;;;5062906;28;20487;-76
2022/05/09 08:42:38;;;;;;;14.18;3.22;;;19.70;99.90;;;;;;5072290;28;20483;-75
2022/05/09 08:45:29;;;;;;;11.57;3.10;;;19.70;99.90;;;;;;5081225;28;20677;-76
2022/05/09 08:48:40;;;;;;;16.77;3.10;;;19.90;99.90;;;;;;5090031;28;20089;-79
2022/05/09 08:51:12;;;;;;;10.85;2.55;;;20.00;99.40;;;;;;5009909;28;20068;-77
2022/05/09 08:53:41;;;;;;;14.30;3.03;;;20.20;98.70;;;;;;5027711;28;20137;-76
2022/05/09 08:56:12;;;;;;;9.80;3.05;;;20.10;97.40;;;;;;5027662;28;20068;-77
2022/05/09 08:59:00;;;;;;;10.68;2.53;;;20.50;98.70;;;;;;5027614;28;20679;-77
2022/05/09 09:01:50;;;;;;;9.55;2.55;;;20.80;97.60;;;;;;5027881;28;20049;-77
2022/05/09 09:04:21;;;;;;;8.07;2.28;;;20.90;95.00;;;;;;5000600;28;20049;-79
2022/05/09 09:07:10;;;;;;;13.70;2.58;;;21.20;96.10;;;;;;5024108;28;20073;-79
2022/05/09 09:09:54;;;;;;;11.88;2.45;;;21.40;95.20;;;;;;5011350;28;20085;-75
2022/05/09 09:12:39;;;;;;;12.18;2.30;;;21.40;95.40;;;;;;5027650;28;20050;-74
2022/05/09 09:15:43;;;;;;;10.45;2.25;;;21.80;94.80;;;;;;5027166;28;20054;-73
2022/05/09 09:18:20;;;;;;;14.60;3.08;;;22.10;94.50;;;;;;4949983;28;20847;-72
2022/05/09 09:20:54;;;;;;;8.98;2.13;;;22.40;93.10;;;;;;4931347;29;20071;-76
2022/05/09 09:23:38;;;;;;;26.20;3.05;;;22.30;90.50;;;;;;4931571;29;20439;-75
2022/05/09 09:26:13;;;;;;;19.48;4.82;;;22.50;91.60;;;;;;4947093;28;20538;-73
2022/05/09 09:28:47;;;;;;;14.82;3.83;;;22.40;85.30;;;;;;4965607;28;20058;-72
2022/05/09 09:31:16;;;;;;;25.15;7.25;;;22.60;88.40;;;;;;5006979;28;20095;-73
2022/05/09 09:33:53;;;;;;;35.80;11.52;;;22.50;85.70;;;;;;5007798;28;20069;-74
2022/05/09 09:36:25;;;;;;;11.32;2.22;;;22.60;84.70;;;;;;5006751;28;20099;-73
2022/05/09 09:38:58;;;;;;;12.82;2.45;;;22.80;86.10;;;;;;4990900;28;20049;-73
2022/05/09 09:41:31;;;;;;;11.27;2.47;;;22.80;82.90;;;;;;5006254;28;20092;-77
2022/05/09 09:44:13;;;;;;;7.80;2.00;;;22.90;81.20;;;;;;4990280;28;20136;-76
2022/05/09 09:47:00;;;;;;;12.18;2.47;;;22.90;80.00;;;;;;4999267;28;20045;-79
2022/05/09 09:49:26;;;;;;;9.00;2.22;;;23.10;78.50;;;;;;5054028;28;20063;-77
2022/05/09 09:51:51;;;;;;;9.95;2.10;;;23.40;82.30;;;;;;5089135;28;20043;-78
2022/05/09 09:54:21;;;;;;;7.43;1.85;;;23.40;80.30;;;;;;5070820;28;20064;-78
2022/05/09 09:56:47;;;;;;;10.82;2.17;;;23.60;80.10;;;;;;5074553;28;20441;-78
2022/05/09 09:59:23;;;;;;;9.43;1.95;;;23.60;73.80;;;;;;5088913;28;20486;-77
2022/05/09 10:02:12;;;;;;;8.82;2.08;;;23.60;70.60;;;;;;5081869;28;20495;-78
2022/05/09 10:04:37;;;;;;;10.80;2.55;;;23.60;73.90;;;;;;5081948;28;20479;-77
2022/05/09 10:07:08;;;;;;;14.77;3.03;;;23.60;70.40;;;;;;5089489;28;20118;-78
2022/05/09 10:10:10;;;;;;;12.55;2.92;;;23.60;70.50;;;;;;5088224;28;20048;-77
2022/05/09 10:12:48;;;;;;;15.48;2.53;;;23.50;65.90;;;;;;5066915;28;20060;-79
2022/05/09 10:15:29;;;;;;;9.45;3.03;;;23.50;69.80;;;;;;5082274;28;20053;-78
2022/05/09 10:17:57;;;;;;;10.18;2.65;;;23.60;66.40;;;;;;5071417;28;20036;-75
2022/05/09 10:20:27;;;;;;;14.02;2.45;;;23.60;69.10;;;;;;5069910;28;20040;-77
2022/05/09 10:25:59;;;;;;;;;;;23.90;69.10;;;;;;5061501;28;20164;-75
2022/05/09 10:28:27;;;;;;;12.63;2.70;;;23.90;68.00;;;;;;5085685;28;19920;-80
2022/05/09 10:30:58;;;;;;;11.10;2.40;;;23.90;70.30;;;;;;5088925;28;20048;-81
2022/05/09 10:33:38;;;;;;;10.50;2.25;;;24.00;69.60;;;;;;5089017;28;20051;-83
2022/05/09 10:36:39;;;;;;;14.18;2.45;;;24.20;68.30;;;;;;5082173;28;20040;-74
2022/05/09 10:39:14;;;;;;;14.00;2.85;;;24.40;66.90;;;;;;5087971;28;20040;-77
2022/05/09 10:41:44;;;;;;;8.63;2.33;;;24.50;66.60;;;;;;5069871;28;20044;-76
2022/05/09 10:44:35;;;;;;;11.05;2.53;;;24.10;66.80;;;;;;5088797;28;20040;-78
2022/05/09 10:47:06;;;;;;;10.07;2.40;;;24.10;67.70;;;;;;5081833;28;20044;-76
2022/05/09 10:50:00;;;;;;;10.77;2.33;;;24.00;65.70;;;;;;5084593;28;20131;-77
2022/05/09 10:52:55;;;;;;;9.38;2.67;;;24.30;65.80;;;;;;5091968;28;20083;-75
2022/05/09 10:56:03;;;;;;;12.60;2.17;;;24.50;65.40;;;;;;5092888;28;20381;-76
2022/05/09 10:58:40;;;;;;;7.35;1.83;;;24.60;63.00;;;;;;5013324;28;20172;-75
2022/05/09 11:01:20;;;;;;;7.68;1.63;;;24.60;63.60;;;;;;5014927;28;20061;-75
2022/05/09 11:03:46;;;;;;;9.65;2.10;;;24.70;63.30;;;;;;5021087;28;20053;-75
2022/05/09 11:06:32;;;;;;;6.43;1.90;;;24.70;63.10;;;;;;5002818;28;20593;-75
2022/05/09 11:09:10;;;;;;;9.70;2.10;;;24.60;61.90;;;;;;5020592;28;20100;-75
2022/05/09 11:11:59;;;;;;;12.88;2.17;;;24.40;61.50;;;;;;5004437;28;20041;-75
2022/05/09 11:15:01;;;;;;;10.50;1.88;;;24.60;59.60;;;;;;5006675;28;20068;-79
2022/05/09 11:17:36;;;;;;;11.00;1.90;;;24.60;59.10;;;;;;5017048;28;20049;-77
2022/05/09 11:20:31;;;;;;;8.73;1.80;;;24.50;60.00;;;;;;5003293;28;20131;-76
2022/05/09 11:22:59;;;;;;;9.25;1.98;;;24.40;60.10;;;;;;5003271;28;20072;-75
2022/05/09 11:25:38;;;;;;;11.13;1.88;;;24.10;58.60;;;;;;5020689;28;20120;-73
2022/05/09 11:28:30;;;;;;;9.82;2.00;;;24.40;60.90;;;;;;5018298;28;20060;-74
2022/05/09 11:31:01;;;;;;;11.27;2.10;;;24.50;62.20;;;;;;5019644;28;20046;-74
2022/05/09 11:33:45;;;;;;;11.32;2.33;;;24.60;61.20;;;;;;4989650;28;20049;-74
2022/05/09 11:36:50;;;;;;;7.22;2.10;;;24.90;60.30;;;;;;5076307;28;20091;-74
2022/05/09 11:39:28;;;;;;;9.93;2.40;;;24.90;57.20;;;;;;5073657;28;20070;-75
2022/05/09 11:43:27;;;;;;;14.00;2.08;;;25.00;60.90;;;;;;5070135;28;20376;-72
2022/05/09 11:45:18;;;;;;;13.50;2.20;;;25.10;58.30;;;;;;5083506;28;20060;-74
2022/05/09 11:48:02;;;;;;;6.50;1.70;;;25.00;58.60;;;;;;4971359;28;20095;-74
2022/05/09 11:50:40;;;;;;;10.02;2.38;;;25.30;57.80;;;;;;4966817;28;20181;-75
2022/05/09 11:53:07;;;;;;;13.68;2.15;;;25.20;59.30;;;;;;4966588;28;20050;-73
2022/05/09 11:55:33;;;;;;;6.68;2.00;;;25.10;60.00;;;;;;4983611;28;20046;-74
2022/05/09 11:58:03;;;;;;;12.48;2.33;;;25.20;60.00;;;;;;4989208;28;20054;-73
2022/05/09 12:00:35;;;;;;;12.30;1.63;;;25.30;59.60;;;;;;4989540;28;20084;-74
2022/05/09 12:03:06;;;;;;;8.15;1.58;;;25.30;59.00;;;;;;4989533;28;20116;-73
2022/05/09 12:05:32;;;;;;;10.15;1.90;;;25.10;59.50;;;;;;4969919;28;20670;-75
2022/05/09 12:08:19;;;;;;;8.52;1.90;;;25.10;58.40;;;;;;4989485;28;20039;-73
2022/05/09 12:10:50;;;;;;;9.10;1.90;;;25.30;56.90;;;;;;4973176;28;20053;-72
2022/05/09 12:13:41;;;;;;;18.20;2.13;;;25.40;57.50;;;;;;4984688;28;20082;-74
2022/05/09 12:16:08;;;;;;;9.18;1.85;;;25.60;58.10;;;;;;4969632;28;20128;-74
2022/05/09 12:19:03;;;;;;;7.20;1.90;;;25.60;58.10;;;;;;4989129;28;20505;-72
2022/05/09 12:21:41;;;;;;;9.13;1.70;;;25.50;56.40;;;;;;4989451;28;20046;-70
2022/05/09 12:24:18;;;;;;;7.60;1.50;;;25.60;57.90;;;;;;5026013;28;20053;-71
2022/05/09 12:26:48;;;;;;;9.57;1.95;;;25.60;59.80;;;;;;5096821;28;20749;-71
2022/05/09 12:29:17;;;;;;;21.05;2.13;;;25.60;58.20;;;;;;5091723;28;20164;-72
2022/05/09 12:31:47;;;;;;;8.38;2.22;;;25.80;58.40;;;;;;5091907;28;20050;-73
2022/05/09 12:34:21;;;;;;;9.68;1.63;;;25.90;59.50;;;;;;5092076;28;20059;-70
2022/05/09 12:36:47;;;;;;;5.07;1.52;;;25.60;57.60;;;;;;5079734;28;20052;-72
2022/05/09 12:39:25;;;;;;;12.52;1.90;;;25.40;56.40;;;;;;5112377;28;20439;-74
2022/05/09 12:41:55;;;;;;;8.18;1.55;;;25.60;57.00;;;;;;5061408;28;20109;-72
2022/05/09 12:44:51;;;;;;;7.25;1.55;;;25.60;57.20;;;;;;5090205;28;20137;-72
2022/05/09 12:47:23;;;;;;;8.68;1.58;;;25.30;56.20;;;;;;4988512;28;20070;-73
2022/05/09 12:50:15;;;;;;;5.00;1.27;;;25.40;56.90;;;;;;4965820;28;20185;-72
2022/05/09 12:52:49;;;;;;;5.90;1.30;;;25.40;55.40;;;;;;4972051;28;20062;-73
2022/05/09 12:57:59;;;;;;;7.93;1.40;;;25.70;56.10;;;;;;5006357;28;20056;-71
2022/05/09 13:00:29;;;;;;;9.48;2.08;;;25.60;55.40;;;;;;4990556;28;20057;-72
2022/05/09 13:03:06;;;;;;;6.68;1.52;;;25.60;55.50;;;;;;5006098;28;20049;-71
2022/05/09 13:05:35;;;;;;;7.53;1.77;;;25.80;54.70;;;;;;4990737;28;20145;-71
2022/05/09 13:08:06;;;;;;;7.40;1.52;;;26.10;56.30;;;;;;5006707;28;20042;-70
2022/05/09 13:10:53;;;;;;;10.77;2.50;;;26.20;56.00;;;;;;5005145;28;20188;-72
2022/05/09 13:13:34;;;;;;;7.97;1.85;;;25.90;56.00;;;;;;5007111;28;20141;-74
2022/05/09 13:16:01;;;;;;;16.45;2.00;;;26.00;55.60;;;;;;4988651;28;20093;-73
2022/05/09 13:18:31;;;;;;;6.85;1.75;;;25.90;56.50;;;;;;5007431;28;20046;-70